Corn, Oklahoma
Current Conditions -  °F | °C
As of 12:35 AM on Monday 24 Nov 2014 (Local Time) from KOJA Reporting Station
Clear Clear  
Wind Chill: 30°   Ceiling: Unl
Heat Index: 37°   Visibility: 10mi
Dew Point: 27°   Wind: 12mph
Humidity: 65%   Direction: 300°WNW
Pressure: 29.84"   Gusts: NA
Location:  35.38°N, 98.78°W
Report Text: KOJA 240635Z AUTO 30010KT 10SM CLR 03/M03 A2984 RMK AO2
Loading
Personal Weather Stations






























Interactive Weather Map New forecast layout! Learn more

10-Day Weather Forecast

Advertisements
Track Severe Weather on mobile